Time;durP1;ratioP1;P1;durP2;ratioP2;P2;SDS_P1;SDS_P2;PMS_P1;PMS_P2;Temp;Humidity;BMP_temperature;BMP_pressure;BME280_temperature;BME280_humidity;BME280_pressure;Samples;Min_cycle;Max_cycle;Signal;HPM_P1;HPM_P2
2022/08/24 03:01:19;;;;;;;3.42;1.55;;;26.70;41.40;;;;;;5457032;23;45914;-57
2022/08/24 03:03:45;;;;;;;1.57;1.30;;;26.70;41.40;;;;;;4911527;28;45464;-56
2022/08/24 03:06:11;;;;;;;1.77;1.30;;;26.70;42.00;;;;;;4925662;28;45328;-58
2022/08/24 03:08:36;;;;;;;2.03;1.53;;;26.70;41.40;;;;;;4905969;28;45606;-58
2022/08/24 03:11:02;;;;;;;2.77;1.40;;;26.70;41.40;;;;;;4905639;28;45179;-59
2022/08/24 03:13:29;;;;;;;3.78;1.48;;;26.70;41.40;;;;;;4910002;28;45672;-58
2022/08/24 03:15:55;;;;;;;1.95;1.50;;;26.70;41.40;;;;;;4911168;28;45693;-58
2022/08/24 03:18:21;;;;;;;2.67;1.60;;;26.70;41.50;;;;;;4911303;28;44892;-58
2022/08/24 03:20:48;;;;;;;3.10;1.70;;;26.70;41.40;;;;;;4910348;28;45141;-58
2022/08/24 03:23:14;;;;;;;2.97;1.90;;;26.70;41.40;;;;;;4910924;28;45359;-57
2022/08/24 03:25:40;;;;;;;4.22;2.10;;;26.70;41.50;;;;;;4913048;28;44926;-58
2022/08/24 03:28:05;;;;;;;3.20;1.70;;;26.60;41.50;;;;;;4879834;28;44884;-59
2022/08/24 03:30:31;;;;;;;4.05;2.33;;;26.60;41.60;;;;;;4911531;28;45350;-56
2022/08/24 03:32:56;;;;;;;8.20;2.47;;;26.50;41.60;;;;;;4912689;28;45373;-57
2022/08/24 03:35:22;;;;;;;5.03;2.43;;;26.60;41.70;;;;;;4900825;28;45531;-58
2022/08/24 03:37:50;;;;;;;5.73;2.50;;;26.60;41.70;;;;;;4913632;28;45784;-57
2022/08/24 03:40:16;;;;;;;3.38;2.20;;;26.50;41.70;;;;;;4903262;28;44988;-57
2022/08/24 03:42:41;;;;;;;4.47;2.67;;;26.50;41.70;;;;;;4886532;28;47937;-56
2022/08/24 03:45:07;;;;;;;4.90;2.47;;;26.60;41.70;;;;;;4911608;28;45273;-59
2022/08/24 03:47:33;;;;;;;5.25;2.50;;;26.60;41.70;;;;;;4911471;28;45550;-58
2022/08/24 03:49:59;;;;;;;5.70;2.63;;;26.50;41.60;;;;;;4910679;28;45320;-58
2022/08/24 03:52:25;;;;;;;3.87;2.13;;;26.50;41.60;;;;;;4911058;28;46458;-58
2022/08/24 03:54:51;;;;;;;4.35;2.50;;;26.50;41.50;;;;;;4907570;28;45618;-57
2022/08/24 03:57:16;;;;;;;4.38;2.30;;;26.50;41.50;;;;;;4906340;28;44746;-59
2022/08/24 03:59:42;;;;;;;4.85;2.38;;;26.50;41.50;;;;;;4903618;28;45290;-59
2022/08/24 04:02:08;;;;;;;4.05;2.38;;;26.50;41.40;;;;;;4906651;28;46299;-57
2022/08/24 04:04:34;;;;;;;4.43;2.33;;;26.50;41.40;;;;;;4907409;28;48020;-58
2022/08/24 04:06:59;;;;;;;2.38;1.98;;;26.50;41.40;;;;;;4904880;28;45369;-58
2022/08/24 04:09:25;;;;;;;3.77;2.10;;;26.50;41.40;;;;;;4902423;28;45450;-59
2022/08/24 04:11:50;;;;;;;3.15;2.20;;;26.40;41.30;;;;;;4907514;28;45288;-58
2022/08/24 04:14:16;;;;;;;3.80;2.10;;;26.40;41.30;;;;;;4912481;28;45516;-59
2022/08/24 04:16:44;;;;;;;4.57;2.13;;;26.40;41.30;;;;;;4912112;28;44960;-57
2022/08/24 04:19:10;;;;;;;3.03;2.00;;;26.40;41.40;;;;;;4909058;28;44849;-60
2022/08/24 04:21:35;;;;;;;2.70;2.00;;;26.40;41.30;;;;;;4899009;28;45622;-58
2022/08/24 04:24:05;;;;;;;3.83;2.00;;;26.40;41.50;;;;;;4904629;28;45097;-60
2022/08/24 04:26:31;;;;;;;3.58;2.28;;;26.30;41.50;;;;;;4902735;28;45610;-59
2022/08/24 04:28:57;;;;;;;4.43;2.30;;;26.30;41.50;;;;;;4904812;28;44994;-59
2022/08/24 04:31:23;;;;;;;3.30;2.10;;;26.30;41.50;;;;;;4904899;28;45626;-59
2022/08/24 04:33:49;;;;;;;3.80;2.20;;;26.30;41.60;;;;;;4905622;28;45288;-59
2022/08/24 04:36:15;;;;;;;5.50;2.57;;;26.30;41.60;;;;;;4904651;28;45218;-59
2022/08/24 04:38:40;;;;;;;2.85;2.10;;;26.30;41.70;;;;;;4904504;28;45135;-59
2022/08/24 04:41:07;;;;;;;3.85;2.58;;;26.30;41.60;;;;;;4903687;28;45619;-58
2022/08/24 04:43:34;;;;;;;4.22;2.60;;;26.30;41.60;;;;;;4907681;28;44995;-59
2022/08/24 04:45:59;;;;;;;4.80;2.58;;;26.30;41.60;;;;;;4905434;28;44994;-60
2022/08/24 04:48:25;;;;;;;4.43;2.53;;;26.30;41.80;;;;;;4899900;28;45447;-58
2022/08/24 04:50:51;;;;;;;4.13;2.80;;;26.30;41.70;;;;;;4903455;28;46642;-59
2022/08/24 04:53:17;;;;;;;5.88;3.10;;;26.30;41.80;;;;;;4906266;28;45436;-60
2022/08/24 04:55:45;;;;;;;5.57;3.00;;;26.30;41.80;;;;;;4904386;28;45456;-59
2022/08/24 04:58:12;;;;;;;5.93;3.85;;;26.30;41.80;;;;;;4905146;28;45292;-58
2022/08/24 05:00:37;;;;;;;7.25;4.25;;;26.30;41.90;;;;;;4906198;28;45710;-56
2022/08/24 05:03:03;;;;;;;6.50;4.00;;;26.30;41.90;;;;;;4906074;28;45450;-59
2022/08/24 05:05:28;;;;;;;4.87;3.50;;;26.20;42.00;;;;;;4906475;28;45007;-58
2022/08/24 05:07:54;;;;;;;6.90;4.07;;;26.20;42.00;;;;;;4907625;28;45276;-58
2022/08/24 05:10:20;;;;;;;5.57;4.10;;;26.20;42.00;;;;;;4906242;28;45819;-58
2022/08/24 05:12:46;;;;;;;7.30;4.70;;;26.20;42.10;;;;;;4902208;28;45623;-58
2022/08/24 05:15:11;;;;;;;5.43;4.20;;;26.10;42.40;;;;;;4903803;28;45648;-59
2022/08/24 05:17:39;;;;;;;8.10;5.07;;;26.10;42.40;;;;;;4902576;28;46109;-59
2022/08/24 05:20:08;;;;;;;7.32;4.63;;;26.10;42.50;;;;;;4904466;28;45976;-58
2022/08/24 05:22:33;;;;;;;7.27;5.13;;;26.10;42.50;;;;;;4909352;28;45261;-56
2022/08/24 05:24:59;;;;;;;8.57;5.20;;;26.10;42.60;;;;;;4910996;28;45762;-57
2022/08/24 05:27:25;;;;;;;12.27;5.68;;;26.10;42.60;;;;;;4914999;28;45089;-58
2022/08/24 05:29:53;;;;;;;7.72;5.30;;;26.40;42.30;;;;;;4912459;28;46484;-58
2022/08/24 05:32:19;;;;;;;8.73;5.30;;;26.60;41.90;;;;;;4908710;28;45179;-59
2022/08/24 05:34:44;;;;;;;7.40;5.03;;;26.60;41.80;;;;;;4911699;28;45472;-57
2022/08/24 05:37:10;;;;;;;10.83;5.90;;;26.60;42.00;;;;;;4913247;28;45041;-59
2022/08/24 05:39:36;;;;;;;7.97;5.33;;;26.50;42.20;;;;;;4910888;28;46870;-59
2022/08/24 05:42:01;;;;;;;9.00;5.60;;;26.50;42.30;;;;;;4909193;28;45405;-58
2022/08/24 05:44:29;;;;;;;7.90;5.40;;;26.50;42.40;;;;;;4906680;28;45643;-56
2022/08/24 05:46:57;;;;;;;10.25;5.65;;;26.40;42.50;;;;;;4908228;28;45804;-57
2022/08/24 05:49:23;;;;;;;9.95;5.82;;;26.40;42.50;;;;;;4909871;28;45385;-58
2022/08/24 05:51:48;;;;;;;8.85;5.45;;;26.40;42.80;;;;;;4911213;28;45184;-59
2022/08/24 05:54:14;;;;;;;8.23;5.50;;;26.40;42.80;;;;;;4913463;28;45537;-58
2022/08/24 05:56:40;;;;;;;8.90;5.70;;;26.40;43.10;;;;;;4913252;28;45412;-57
2022/08/24 05:59:05;;;;;;;11.20;5.00;;;26.40;43.20;;;;;;4914080;28;45435;-57
2022/08/24 06:01:32;;;;;;;8.00;5.33;;;26.50;43.10;;;;;;4901419;28;45284;-58
2022/08/24 06:03:58;;;;;;;7.95;4.88;;;26.70;42.90;;;;;;4877414;29;45446;-57
2022/08/24 06:06:23;;;;;;;7.63;5.30;;;26.70;43.00;;;;;;4862225;29;45427;-58
2022/08/24 06:08:50;;;;;;;6.77;4.97;;;26.70;42.80;;;;;;4869055;29;45433;-58
2022/08/24 06:11:24;;;;;;;7.65;5.00;;;26.80;42.90;;;;;;4877390;29;45207;-57
2022/08/24 06:13:53;;;;;;;7.30;5.40;;;26.80;43.00;;;;;;4878358;29;45340;-58
2022/08/24 06:16:18;;;;;;;8.43;5.38;;;26.80;42.90;;;;;;4876629;29;45383;-60
2022/08/24 06:18:44;;;;;;;9.35;5.18;;;27.00;42.60;;;;;;4895091;29;46296;-57
2022/08/24 06:21:11;;;;;;;6.93;5.13;;;27.10;42.50;;;;;;4894851;29;45473;-57
2022/08/24 06:23:37;;;;;;;7.60;4.68;;;27.20;42.50;;;;;;4894344;29;45646;-57
2022/08/24 06:28:47;;;;;;;6.23;4.43;;;27.30;42.60;;;;;;4895814;29;45249;-57
2022/08/24 06:31:13;;;;;;;7.57;4.40;;;27.40;42.60;;;;;;4893716;28;45139;-56
2022/08/24 06:33:39;;;;;;;6.93;4.53;;;27.40;42.60;;;;;;4876131;29;44744;-59
2022/08/24 06:36:05;;;;;;;6.20;4.50;;;27.40;42.70;;;;;;4886163;29;45634;-56
2022/08/24 06:38:30;;;;;;;6.23;4.03;;;27.40;42.50;;;;;;4876635;29;44999;-59
2022/08/24 06:40:56;;;;;;;5.40;4.00;;;27.40;42.70;;;;;;4877384;29;45143;-58
2022/08/24 06:43:23;;;;;;;6.87;4.10;;;27.40;43.00;;;;;;4894280;29;45414;-57
2022/08/24 06:45:49;;;;;;;12.80;3.90;;;27.30;43.00;;;;;;4889693;29;44676;-57
2022/08/24 06:48:15;;;;;;;8.90;4.10;;;27.30;43.20;;;;;;4888124;29;45617;-57
2022/08/24 06:50:40;;;;;;;10.18;3.95;;;27.20;43.30;;;;;;4888973;29;45517;-56
2022/08/24 06:53:06;;;;;;;9.97;3.77;;;27.20;43.50;;;;;;4892607;29;45589;-53
2022/08/24 06:55:32;;;;;;;9.47;3.30;;;27.10;43.60;;;;;;4891736;29;45215;-57
2022/08/24 06:57:57;;;;;;;6.57;3.37;;;27.10;43.60;;;;;;4892662;29;45282;-58
2022/08/24 07:00:23;;;;;;;8.40;3.73;;;27.10;43.70;;;;;;4892546;28;45184;-59
2022/08/24 07:02:50;;;;;;;7.03;3.58;;;27.10;43.90;;;;;;4894432;28;45585;-59
2022/08/24 07:05:15;;;;;;;8.80;3.30;;;27.10;43.90;;;;;;4879171;28;46070;-59
2022/08/24 07:07:41;;;;;;;6.65;3.83;;;27.10;43.80;;;;;;4896735;28;46557;-58
2022/08/24 07:10:08;;;;;;;6.13;3.35;;;27.10;44.00;;;;;;4898498;28;44849;-59
2022/08/24 07:12:35;;;;;;;4.82;3.30;;;27.20;44.10;;;;;;4883095;29;45453;-58
2022/08/24 07:15:01;;;;;;;5.32;3.28;;;27.20;44.10;;;;;;4880284;29;45540;-59
2022/08/24 07:17:26;;;;;;;5.75;3.38;;;27.20;44.10;;;;;;4894991;28;46538;-59
2022/08/24 07:19:52;;;;;;;8.87;3.80;;;27.20;44.10;;;;;;4893779;28;45209;-58
2022/08/24 07:22:17;;;;;;;6.87;3.33;;;27.20;44.30;;;;;;4895806;28;45323;-59
2022/08/24 07:24:43;;;;;;;7.67;3.50;;;27.20;44.30;;;;;;4904973;28;45354;-58
2022/08/24 07:27:08;;;;;;;9.27;2.90;;;27.30;44.90;;;;;;4896022;28;46235;-58
2022/08/24 07:29:34;;;;;;;10.30;3.30;;;27.30;44.30;;;;;;4886993;28;45619;-59
2022/08/24 07:31:59;;;;;;;11.25;3.15;;;27.30;44.30;;;;;;4892324;28;45821;-60
2022/08/24 07:34:25;;;;;;;7.57;3.33;;;27.30;44.30;;;;;;4895509;28;45194;-59
2022/08/24 07:36:51;;;;;;;7.80;3.13;;;27.30;44.20;;;;;;4877068;28;45811;-58
2022/08/24 07:39:17;;;;;;;7.80;2.85;;;27.40;44.20;;;;;;4894742;28;45177;-59
2022/08/24 07:41:43;;;;;;;6.63;2.57;;;27.40;44.10;;;;;;4899581;28;45448;-59
2022/08/24 07:44:09;;;;;;;5.10;3.10;;;27.40;44.00;;;;;;4878550;29;45396;-59
2022/08/24 07:46:35;;;;;;;7.75;3.22;;;27.40;44.30;;;;;;4896692;28;45721;-58
2022/08/24 07:49:01;;;;;;;6.97;3.22;;;27.50;44.40;;;;;;4896657;28;45506;-60
2022/08/24 07:51:27;;;;;;;5.70;2.53;;;27.50;44.40;;;;;;4896624;28;45219;-59
2022/08/24 07:53:53;;;;;;;5.90;2.47;;;27.50;44.30;;;;;;4901202;28;44849;-58
2022/08/24 07:56:19;;;;;;;6.85;2.85;;;27.60;44.30;;;;;;4901574;28;46908;-59
2022/08/24 07:58:44;;;;;;;5.47;2.78;;;27.50;44.10;;;;;;4863857;28;45714;-60
2022/08/24 08:01:10;;;;;;;4.37;2.70;;;27.60;44.10;;;;;;4886009;28;45422;-60
2022/08/24 08:03:36;;;;;;;5.85;2.38;;;27.60;44.20;;;;;;4893546;28;44994;-59
2022/08/24 08:06:06;;;;;;;5.32;2.72;;;27.60;44.00;;;;;;4890990;28;45491;-58
2022/08/24 08:08:34;;;;;;;3.83;2.70;;;27.70;44.20;;;;;;4896632;28;45282;-57
2022/08/24 08:11:01;;;;;;;3.83;2.57;;;27.70;44.30;;;;;;4892378;28;45182;-59
2022/08/24 08:13:28;;;;;;;4.03;2.50;;;27.70;44.30;;;;;;4892187;28;45358;-59
2022/08/24 08:15:54;;;;;;;4.72;2.38;;;27.70;44.10;;;;;;4901167;28;46388;-59
2022/08/24 08:18:20;;;;;;;6.15;2.30;;;27.70;44.10;;;;;;4891457;28;45773;-59
2022/08/24 08:20:46;;;;;;;2.95;2.35;;;27.70;44.00;;;;;;4893468;28;45098;-59
2022/08/24 08:25:56;;;;;;;4.10;2.33;;;27.80;44.10;;;;;;4894702;28;45966;-60
2022/08/24 08:28:23;;;;;;;9.57;2.60;;;27.80;44.00;;;;;;4884662;28;45077;-59
2022/08/24 08:30:48;;;;;;;8.85;2.58;;;27.80;44.00;;;;;;4899302;28;44814;-57
2022/08/24 08:33:14;;;;;;;3.67;2.00;;;27.90;44.10;;;;;;4891875;28;45625;-59
2022/08/24 08:35:41;;;;;;;7.93;2.75;;;27.90;44.10;;;;;;4898603;28;45398;-58
2022/08/24 08:38:07;;;;;;;6.30;2.50;;;27.90;44.20;;;;;;4895919;28;45591;-59
2022/08/24 08:40:55;;;;;;;6.03;2.67;;;28.00;44.30;;;;;;4892619;28;45220;-58
2022/08/24 08:43:36;;;;;;;8.13;2.90;;;28.00;44.20;;;;;;4891893;28;45314;-58
2022/08/24 08:46:30;;;;;;;6.20;2.40;;;28.00;44.20;;;;;;4892824;28;45493;-58
2022/08/24 08:49:22;;;;;;;4.20;2.33;;;28.00;44.10;;;;;;4885777;28;45421;-58
2022/08/24 08:51:55;;;;;;;4.82;2.35;;;28.10;44.00;;;;;;4886745;28;45335;-59
2022/08/24 08:54:40;;;;;;;4.28;2.58;;;28.10;44.00;;;;;;4904106;28;45731;-58
2022/08/24 08:57:21;;;;;;;4.93;2.53;;;28.10;43.90;;;;;;4889159;28;45238;-58
2022/08/24 09:00:09;;;;;;;8.68;2.45;;;28.20;43.80;;;;;;4906166;28;44792;-58
2022/08/24 09:03:01;;;;;;;5.63;2.53;;;28.20;43.70;;;;;;4893202;28;45079;-57
2022/08/24 09:06:06;;;;;;;7.83;2.80;;;28.20;43.70;;;;;;4913849;28;45842;-58
2022/08/24 09:08:56;;;;;;;4.97;2.70;;;28.20;43.60;;;;;;4898689;28;47122;-59
2022/08/24 09:11:40;;;;;;;4.90;2.50;;;28.20;43.60;;;;;;4913598;28;45473;-58
2022/08/24 09:14:39;;;;;;;5.10;2.30;;;28.20;43.50;;;;;;4896135;28;45357;-59
2022/08/24 09:17:11;;;;;;;4.65;2.30;;;28.30;43.50;;;;;;4896928;28;45505;-58
2022/08/24 09:20:06;;;;;;;6.07;2.70;;;28.30;43.40;;;;;;4891236;28;45281;-57
2022/08/24 09:22:38;;;;;;;3.80;2.28;;;28.30;43.40;;;;;;4910752;28;45528;-57
2022/08/24 09:25:35;;;;;;;5.07;2.58;;;28.30;43.30;;;;;;4896427;28;45469;-58
2022/08/24 09:28:22;;;;;;;3.45;2.00;;;28.40;43.40;;;;;;4884059;28;45483;-59
2022/08/24 09:31:02;;;;;;;3.43;2.70;;;28.40;43.40;;;;;;4910852;28;45445;-58
2022/08/24 09:33:47;;;;;;;5.22;2.25;;;28.40;43.40;;;;;;4914206;28;45445;-58
2022/08/24 09:36:19;;;;;;;5.40;2.65;;;28.40;43.40;;;;;;4898509;28;45452;-58
2022/08/24 09:39:05;;;;;;;2.92;2.30;;;28.40;43.30;;;;;;4907700;28;45528;-59
2022/08/24 09:41:56;;;;;;;5.40;2.30;;;28.40;43.20;;;;;;4911741;28;45602;-59
2022/08/24 09:45:19;;;;;;;4.53;2.53;;;28.50;43.30;;;;;;4897324;28;45682;-58
2022/08/24 09:48:05;;;;;;;3.67;2.53;;;28.50;43.20;;;;;;4854932;29;45564;-58
2022/08/24 09:50:48;;;;;;;4.70;2.60;;;28.50;43.10;;;;;;4856122;29;45228;-59
2022/08/24 09:53:44;;;;;;;3.15;2.20;;;28.60;43.10;;;;;;4878094;28;45184;-59
2022/08/24 09:56:28;;;;;;;3.08;2.60;;;28.60;43.20;;;;;;4896707;28;45558;-59
2022/08/24 09:59:14;;;;;;;3.10;2.40;;;28.60;43.10;;;;;;4914948;28;44932;-59
2022/08/24 10:02:04;;;;;;;3.63;2.30;;;28.60;43.00;;;;;;4910543;28;45348;-58
2022/08/24 10:04:43;;;;;;;4.72;2.33;;;28.60;43.10;;;;;;4906099;28;46880;-59
2022/08/24 10:07:27;;;;;;;2.90;2.30;;;28.60;43.10;;;;;;4913035;28;45476;-58
2022/08/24 10:09:56;;;;;;;3.83;2.80;;;28.70;43.00;;;;;;4914681;28;45516;-57
2022/08/24 10:12:38;;;;;;;4.53;2.72;;;28.60;43.00;;;;;;4909355;28;45421;-59
2022/08/24 10:15:05;;;;;;;2.78;2.53;;;28.70;43.00;;;;;;4909984;28;47143;-58
2022/08/24 10:17:40;;;;;;;3.92;2.70;;;28.70;43.10;;;;;;4914366;28;45215;-56
2022/08/24 10:20:25;;;;;;;3.75;3.03;;;28.70;43.00;;;;;;4912390;28;45554;-58
2022/08/24 10:23:12;;;;;;;5.05;2.72;;;28.70;43.00;;;;;;4894280;28;45106;-59
2022/08/24 10:26:02;;;;;;;3.65;2.30;;;28.80;43.00;;;;;;4911326;28;45150;-57
2022/08/24 10:29:10;;;;;;;3.47;2.58;;;28.80;42.90;;;;;;4905463;28;45473;-57
2022/08/24 10:31:50;;;;;;;3.08;2.40;;;28.80;42.90;;;;;;4912331;28;44882;-58
2022/08/24 10:34:58;;;;;;;4.80;2.40;;;28.80;42.70;;;;;;4917494;28;45688;-57
2022/08/24 10:39:39;;;;;;;3.60;2.60;;;28.80;42.60;;;;;;4911825;28;45252;-59
2022/08/24 10:40:48;;;;;;;3.25;2.30;;;28.80;42.60;;;;;;4909868;28;44826;-59
2022/08/24 10:43:50;;;;;;;2.40;2.20;;;28.80;42.50;;;;;;4908177;28;45597;-60
2022/08/24 10:46:38;;;;;;;4.90;2.40;;;28.90;42.50;;;;;;4908625;28;45514;-58
2022/08/24 10:49:16;;;;;;;3.72;2.55;;;28.80;42.40;;;;;;4910713;28;45452;-59
2022/08/24 10:52:01;;;;;;;3.15;2.10;;;28.90;42.90;;;;;;4908603;28;45387;-57
2022/08/24 10:54:27;;;;;;;3.63;2.20;;;28.90;42.20;;;;;;4925839;28;45241;-57
2022/08/24 10:57:14;;;;;;;3.80;2.33;;;28.90;42.20;;;;;;4924555;28;45272;-59
2022/08/24 10:59:43;;;;;;;3.58;2.30;;;28.90;42.10;;;;;;4911526;28;46064;-56
2022/08/24 11:02:37;;;;;;;2.37;2.10;;;28.90;42.10;;;;;;4896836;28;45059;-59
2022/08/24 11:05:15;;;;;;;2.78;2.03;;;28.90;42.10;;;;;;4893728;28;45229;-54
2022/08/24 11:07:57;;;;;;;2.70;2.00;;;28.90;42.10;;;;;;4867369;29;49025;-59
2022/08/24 11:10:29;;;;;;;4.45;2.10;;;28.90;42.10;;;;;;4889353;28;45705;-59
2022/08/24 11:12:54;;;;;;;3.10;2.30;;;28.90;42.00;;;;;;4873644;29;45937;-59
2022/08/24 11:15:25;;;;;;;2.83;2.00;;;28.90;41.90;;;;;;4876824;28;45499;-60
2022/08/24 11:18:00;;;;;;;2.37;2.10;;;28.90;41.90;;;;;;4866143;29;45241;-60
2022/08/24 11:20:28;;;;;;;2.97;2.00;;;28.90;41.90;;;;;;4890210;28;46328;-59
2022/08/24 11:23:19;;;;;;;2.13;1.80;;;28.90;41.80;;;;;;4877196;29;45334;-58
2022/08/24 11:26:00;;;;;;;3.17;2.08;;;29.00;41.80;;;;;;4882967;28;45622;-59
2022/08/24 11:28:29;;;;;;;3.20;1.92;;;28.90;41.70;;;;;;4877628;29;45049;-59
2022/08/24 11:30:55;;;;;;;2.65;2.03;;;29.10;41.70;;;;;;4891507;28;45364;-59
2022/08/24 11:33:30;;;;;;;2.97;2.03;;;29.10;41.40;;;;;;4892624;28;45535;-60
2022/08/24 11:35:58;;;;;;;2.10;1.70;;;29.10;41.10;;;;;;4881458;29;45340;-58
2022/08/24 11:38:26;;;;;;;1.95;1.65;;;29.10;41.00;;;;;;4875733;28;45636;-59
2022/08/24 11:40:56;;;;;;;2.73;1.87;;;29.10;41.00;;;;;;4891393;28;45516;-59
2022/08/24 11:43:31;;;;;;;2.05;1.75;;;29.10;41.10;;;;;;4894153;28;45697;-59
2022/08/24 11:46:21;;;;;;;2.10;1.75;;;29.10;41.10;;;;;;4864722;28;45118;-59
2022/08/24 11:48:49;;;;;;;2.75;2.20;;;29.10;41.00;;;;;;4889859;28;45967;-59
2022/08/24 11:51:25;;;;;;;2.33;1.80;;;29.20;41.10;;;;;;4892470;28;45455;-58
2022/08/24 11:54:23;;;;;;;2.65;1.80;;;29.20;41.10;;;;;;4876737;29;45605;-59
2022/08/24 11:57:14;;;;;;;2.80;2.05;;;29.20;41.10;;;;;;4863369;28;45544;-59
2022/08/24 11:59:55;;;;;;;2.40;1.90;;;29.20;41.10;;;;;;4874590;29;45281;-59
2022/08/24 12:02:32;;;;;;;2.90;2.07;;;29.20;41.00;;;;;;4905999;28;47230;-60
2022/08/24 12:05:15;;;;;;;5.13;2.47;;;29.20;41.10;;;;;;4910371;28;45196;-59
2022/08/24 12:07:59;;;;;;;4.47;2.15;;;29.20;41.00;;;;;;4913184;28;45455;-59
2022/08/24 12:10:41;;;;;;;3.65;1.98;;;29.30;41.10;;;;;;4904425;28;59705;-58
2022/08/24 12:13:28;;;;;;;5.13;2.10;;;29.20;41.00;;;;;;4887601;28;45643;-60
2022/08/24 12:16:03;;;;;;;4.82;2.20;;;29.20;40.90;;;;;;4910015;28;45302;-59
2022/08/24 12:18:50;;;;;;;5.18;1.90;;;29.30;41.00;;;;;;4910770;28;45405;-58
2022/08/24 12:21:17;;;;;;;5.13;1.77;;;29.30;40.90;;;;;;4910548;28;45589;-58
2022/08/24 12:23:51;;;;;;;2.83;1.83;;;29.30;40.90;;;;;;4908916;28;45720;-59
2022/08/24 12:26:34;;;;;;;3.05;2.00;;;29.30;40.80;;;;;;4910891;28;45170;-59
2022/08/24 12:29:20;;;;;;;2.53;1.55;;;29.30;40.60;;;;;;4913362;28;44756;-60
2022/08/24 12:31:57;;;;;;;1.60;1.23;;;29.00;41.30;;;;;;4912072;28;45516;-57
2022/08/24 12:35:01;;;;;;;5.85;1.58;;;28.80;41.70;;;;;;4894576;28;46911;-59
2022/08/24 12:37:40;;;;;;;2.80;1.38;;;28.70;42.00;;;;;;4906297;28;45158;-59
2022/08/24 12:40:32;;;;;;;3.70;1.50;;;28.60;41.40;;;;;;4911444;28;45001;-59
2022/08/24 12:43:00;;;;;;;4.20;1.75;;;28.30;40.60;;;;;;4921897;28;44850;-59
2022/08/24 12:45:25;;;;;;;5.18;1.60;;;28.00;40.60;;;;;;4909195;28;45626;-61
2022/08/24 12:48:20;;;;;;;6.35;1.98;;;27.80;40.70;;;;;;4913314;28;45162;-60
2022/08/24 12:51:10;;;;;;;4.88;1.50;;;27.60;39.10;;;;;;4904442;28;45655;-59
2022/08/24 12:53:50;;;;;;;7.40;1.73;;;27.50;38.90;;;;;;4907745;28;44961;-57
2022/08/24 12:56:38;;;;;;;5.25;1.40;;;27.30;38.80;;;;;;4908323;28;45853;-60
2022/08/24 12:59:16;;;;;;;4.10;1.80;;;27.20;38.90;;;;;;4905964;28;45578;-60
2022/08/24 13:01:44;;;;;;;5.43;1.88;;;27.10;37.70;;;;;;4910225;28;45622;-59
2022/08/24 13:04:14;;;;;;;3.58;1.60;;;26.80;37.60;;;;;;4906110;28;45268;-60
2022/08/24 13:06:43;;;;;;;8.05;1.98;;;26.60;37.60;;;;;;4906541;28;45517;-60
2022/08/24 13:09:35;;;;;;;4.18;1.40;;;26.50;37.80;;;;;;4909727;28;45543;-59
2022/08/24 13:12:29;;;;;;;3.53;1.63;;;26.40;37.70;;;;;;4909754;28;45234;-60
2022/08/24 13:15:14;;;;;;;8.18;1.85;;;26.30;38.00;;;;;;4909203;28;45641;-57
2022/08/24 13:17:40;;;;;;;5.68;1.52;;;26.20;39.00;;;;;;4896463;28;47063;-59
2022/08/24 13:20:30;;;;;;;6.88;1.90;;;26.20;39.30;;;;;;4910668;28;45027;-59
2022/08/24 13:23:11;;;;;;;3.50;1.58;;;26.20;39.40;;;;;;4905530;28;45329;-58
2022/08/24 13:25:46;;;;;;;4.18;1.58;;;26.20;39.70;;;;;;4909755;28;45456;-59
2022/08/24 13:28:23;;;;;;;6.60;1.90;;;26.20;39.70;;;;;;4910537;28;45621;-59
2022/08/24 13:31:12;;;;;;;5.20;2.03;;;26.40;39.60;;;;;;4908036;28;45397;-60
2022/08/24 13:33:53;;;;;;;5.10;1.95;;;26.50;39.60;;;;;;4902568;28;45215;-58
2022/08/24 13:36:43;;;;;;;8.10;2.40;;;26.50;39.40;;;;;;4911635;28;45361;-60
2022/08/24 13:39:44;;;;;;;6.07;2.25;;;26.60;39.40;;;;;;4907744;28;45510;-59
2022/08/24 13:42:35;;;;;;;4.93;1.70;;;26.60;39.50;;;;;;4908876;28;45213;-60
2022/08/24 13:45:04;;;;;;;5.65;1.80;;;26.60;39.70;;;;;;4912755;28;45168;-59
2022/08/24 13:47:59;;;;;;;4.47;1.67;;;26.70;39.60;;;;;;4913032;28;45331;-59
2022/08/24 13:50:29;;;;;;;5.18;2.00;;;26.70;39.70;;;;;;4904906;28;45528;-59
2022/08/24 13:53:04;;;;;;;4.75;1.90;;;26.70;39.70;;;;;;4914214;28;45307;-58
2022/08/24 13:55:42;;;;;;;10.15;2.28;;;26.70;39.60;;;;;;4893753;28;44819;-59
2022/08/24 13:58:35;;;;;;;7.00;1.90;;;26.80;39.90;;;;;;4910171;28;45414;-60
2022/08/24 14:01:07;;;;;;;3.60;1.40;;;26.80;40.10;;;;;;4923934;28;45495;-60
2022/08/24 14:03:55;;;;;;;5.28;1.70;;;26.80;40.10;;;;;;4912352;28;45296;-58
2022/08/24 14:06:53;;;;;;;6.47;1.63;;;26.80;40.10;;;;;;4915338;28;45130;-60
2022/08/24 14:09:34;;;;;;;4.68;1.60;;;26.90;40.10;;;;;;4912061;28;45604;-58
2022/08/24 14:12:43;;;;;;;3.83;1.85;;;26.90;40.20;;;;;;4909669;28;45391;-58
2022/08/24 14:15:23;;;;;;;5.55;1.40;;;26.90;40.30;;;;;;4836118;29;45187;-60
2022/08/24 14:18:26;;;;;;;5.65;1.65;;;26.90;40.30;;;;;;4909326;28;45223;-60
2022/08/24 14:21:07;;;;;;;8.00;1.85;;;27.00;40.50;;;;;;4913545;28;45003;-60
2022/08/24 14:23:51;;;;;;;6.20;1.88;;;27.00;40.60;;;;;;4911449;28;45257;-58
2022/08/24 14:26:32;;;;;;;7.68;1.90;;;26.80;40.30;;;;;;4897516;28;45498;-58
2022/08/24 14:29:19;;;;;;;5.88;2.05;;;26.60;39.20;;;;;;4914923;28;45213;-59
2022/08/24 14:31:53;;;;;;;4.15;1.55;;;26.40;39.50;;;;;;4911894;28;45631;-59
2022/08/24 14:34:43;;;;;;;12.00;1.95;;;26.40;39.60;;;;;;4913194;28;46253;-58
2022/08/24 14:37:12;;;;;;;14.50;2.28;;;26.50;39.50;;;;;;4911289;28;45157;-58
2022/08/24 14:39:50;;;;;;;7.45;1.90;;;26.60;39.60;;;;;;4908185;28;45270;-58
2022/08/24 14:42:55;;;;;;;3.60;1.58;;;26.60;39.50;;;;;;4912781;28;45615;-59
2022/08/24 14:45:46;;;;;;;6.13;1.80;;;26.70;39.50;;;;;;4905970;28;46513;-59
2022/08/24 14:48:22;;;;;;;3.50;1.80;;;26.80;39.70;;;;;;4909719;28;45253;-59
2022/08/24 14:51:13;;;;;;;4.72;2.08;;;26.80;39.70;;;;;;4908973;28;45414;-58
2022/08/24 14:54:00;;;;;;;11.10;2.00;;;26.80;39.50;;;;;;4913706;28;45142;-56
2022/08/24 14:56:58;;;;;;;10.73;2.17;;;26.90;39.60;;;;;;4914987;28;45419;-54
2022/08/24 14:59:32;;;;;;;4.05;1.85;;;26.90;39.50;;;;;;4913095;28;45159;-59
2022/08/24 15:02:30;;;;;;;10.18;2.10;;;26.90;39.60;;;;;;4905822;28;46323;-59
2022/08/24 15:05:05;;;;;;;4.78;1.73;;;26.90;39.60;;;;;;4908065;28;45597;-59
2022/08/24 15:07:32;;;;;;;3.90;1.70;;;27.00;39.70;;;;;;4909554;28;46605;-58
2022/08/24 15:09:59;;;;;;;4.53;1.67;;;27.00;39.70;;;;;;4909515;28;45150;-58
2022/08/24 15:12:47;;;;;;;3.10;1.77;;;27.00;39.80;;;;;;4909336;28;45089;-57
2022/08/24 15:15:30;;;;;;;7.63;2.15;;;27.10;39.80;;;;;;4910408;28;45406;-59
2022/08/24 15:18:07;;;;;;;;;;;27.10;39.90;;;;;;4911792;28;47427;-58
2022/08/24 15:20:55;;;;;;;4.18;1.83;;;27.00;40.00;;;;;;4910438;28;45233;-56
2022/08/24 15:23:36;;;;;;;5.93;1.63;;;27.00;40.00;;;;;;4910069;28;44808;-57
2022/08/24 15:26:21;;;;;;;3.97;1.80;;;27.10;40.00;;;;;;4906156;28;45113;-58
2022/08/24 15:28:50;;;;;;;6.68;1.90;;;27.10;40.00;;;;;;4908845;28;45316;-58
2022/08/24 15:31:27;;;;;;;6.03;2.08;;;27.10;40.00;;;;;;4905774;28;46170;-58
2022/08/24 15:34:01;;;;;;;8.60;2.33;;;27.10;40.10;;;;;;4910470;28;45508;-57
2022/08/24 15:36:28;;;;;;;5.97;1.85;;;27.20;40.20;;;;;;4909656;28;45402;-57
2022/08/24 15:38:54;;;;;;;3.17;1.60;;;27.20;40.10;;;;;;4906843;28;45425;-55
2022/08/24 15:41:30;;;;;;;5.18;2.20;;;27.20;40.10;;;;;;4909018;28;44929;-61
2022/08/24 15:44:03;;;;;;;4.82;2.15;;;27.20;40.20;;;;;;4910478;28;45223;-59
2022/08/24 15:46:38;;;;;;;4.97;1.90;;;27.20;40.20;;;;;;4909590;28;45176;-58
2022/08/24 15:49:11;;;;;;;4.88;2.00;;;27.20;40.20;;;;;;4893063;28;47278;-58
2022/08/24 15:51:50;;;;;;;5.78;1.95;;;27.30;40.30;;;;;;4905775;28;45331;-60
2022/08/24 15:54:22;;;;;;;2.42;1.73;;;27.30;40.40;;;;;;4907342;28;45555;-59
2022/08/24 15:56:49;;;;;;;6.63;1.88;;;27.30;40.30;;;;;;4909243;28;45452;-59
2022/08/24 15:59:38;;;;;;;3.97;2.20;;;27.30;40.30;;;;;;4908714;28;46124;-60
2022/08/24 16:02:24;;;;;;;4.97;1.88;;;27.30;40.40;;;;;;4894931;28;45426;-60
2022/08/24 16:04:51;;;;;;;4.47;1.73;;;27.30;40.40;;;;;;4890867;28;46368;-59
2022/08/24 16:07:22;;;;;;;3.80;1.98;;;27.40;40.40;;;;;;4873946;28;45583;-58
2022/08/24 16:09:48;;;;;;;2.30;1.88;;;27.40;40.40;;;;;;4874337;28;46011;-59
2022/08/24 16:12:23;;;;;;;3.78;2.08;;;27.40;40.40;;;;;;4873284;28;46210;-60
2022/08/24 16:15:11;;;;;;;2.15;1.88;;;27.40;40.60;;;;;;4874616;28;45356;-60
2022/08/24 16:17:55;;;;;;;3.28;1.83;;;27.40;40.60;;;;;;4891528;28;45238;-59
2022/08/24 16:20:29;;;;;;;4.15;1.88;;;27.50;40.70;;;;;;4870525;28;45735;-59
2022/08/24 16:23:01;;;;;;;4.40;1.90;;;27.50;40.70;;;;;;4852063;28;45304;-59
2022/08/24 16:25:43;;;;;;;3.58;1.95;;;27.50;40.60;;;;;;4868439;28;45572;-58
2022/08/24 16:28:21;;;;;;;3.45;2.00;;;27.50;40.70;;;;;;4872739;28;45204;-59
2022/08/24 16:30:54;;;;;;;4.40;2.03;;;27.50;40.80;;;;;;4870327;28;46292;-60